ADDS METAR Data INFO
IDs: Format: Raw Decoded Include TAF

Data at: 0041 UTC 23 Oct 2017

METAR for:KFMY (Fort Myers/Page Fld, FL, US)
Text:KFMY 222353Z 09003KT 9SM CLR 25/22 A3004 RMK AO2 SLP174 T02500222 10306 20250 51007
Temperature: 25.0°C ( 77°F)
Dewpoint: 22.2°C ( 72°F) [RH = 84%]
Pressure (altimeter):30.04 inches Hg (1017.4 mb) [Sea level pressure: 1017.4 mb]
Winds:from the E (90 degrees) at 3 MPH (3 knots; 1.5 m/s)
Visibility: 9 sm ( 14 km)
Ceiling:at least 12,000 feet AGL
Clouds:sky clear below 12,000 feet AGL